createdAt,value
2022-08-28T00:01:57.723Z,98314.25
2022-08-28T00:04:24.920Z,98315.66
2022-08-28T00:06:51.940Z,98320.47
2022-08-28T00:09:19.039Z,98312.84
2022-08-28T00:11:47.315Z,98314.75
2022-08-28T00:14:14.561Z,98314.00
2022-08-28T00:16:42.231Z,98322.13
2022-08-28T00:19:11.002Z,98309.78
2022-08-28T00:21:38.319Z,98306.53
2022-08-28T00:24:05.324Z,98312.69
2022-08-28T00:26:51.160Z,98304.31
2022-08-28T00:29:18.001Z,98312.38
2022-08-28T00:31:45.079Z,98307.31
2022-08-28T00:34:12.540Z,98310.81
2022-08-28T00:36:41.481Z,98317.94
2022-08-28T00:39:09.623Z,98311.31
2022-08-28T00:41:41.197Z,98313.31
2022-08-28T00:44:19.076Z,98321.44
2022-08-28T00:46:49.557Z,98324.53
2022-08-28T00:49:21.207Z,98324.97
2022-08-28T00:52:11.831Z,98326.31
2022-08-28T00:54:59.510Z,98333.84
2022-08-28T00:57:41.006Z,98327.94
2022-08-28T01:00:14.099Z,98323.47
2022-08-28T01:02:41.198Z,98328.78
2022-08-28T01:05:09.840Z,98328.41
2022-08-28T01:07:38.136Z,98329.88
2022-08-28T01:10:09.682Z,98324.78
2022-08-28T01:12:37.252Z,98333.75
2022-08-28T01:15:14.046Z,98330.47
2022-08-28T01:17:48.073Z,98335.31
2022-08-28T01:20:19.692Z,98333.50
2022-08-28T01:23:14.203Z,98338.97
2022-08-28T01:25:42.585Z,98345.84
2022-08-28T01:28:12.676Z,98346.22
2022-08-28T01:30:45.406Z,98349.25
2022-08-28T01:33:14.852Z,98346.81
2022-08-28T01:35:45.812Z,98348.16
2022-08-28T01:38:12.857Z,98348.97
2022-08-28T01:40:48.908Z,98352.38
2022-08-28T01:43:17.187Z,98353.00
2022-08-28T01:45:47.507Z,98346.94
2022-08-28T01:48:16.124Z,98343.16
2022-08-28T01:50:44.020Z,98349.94
2022-08-28T01:53:15.719Z,98345.19
2022-08-28T01:55:44.028Z,98343.25
2022-08-28T01:58:12.271Z,98344.44
2022-08-28T02:00:40.038Z,98337.06
2022-08-28T02:03:07.152Z,98334.38
2022-08-28T02:05:34.989Z,98335.81
2022-08-28T02:08:04.951Z,98341.22
2022-08-28T02:10:34.016Z,98346.53
2022-08-28T02:13:01.527Z,98346.75
2022-08-28T02:15:30.565Z,98338.91
2022-08-28T02:17:58.281Z,98334.78
2022-08-28T02:20:25.730Z,98335.84
2022-08-28T02:22:53.031Z,98333.28
2022-08-28T02:25:20.124Z,98335.34
2022-08-28T02:27:47.015Z,98330.09
2022-08-28T02:30:15.457Z,98328.47
2022-08-28T02:32:44.451Z,98325.50
2022-08-28T02:35:13.326Z,98328.75
2022-08-28T02:37:44.344Z,98323.28
2022-08-28T02:43:08.643Z,98322.47
2022-08-28T02:45:36.150Z,98322.34
2022-08-28T02:48:03.319Z,98325.00
2022-08-28T02:50:31.567Z,98311.72
2022-08-28T02:52:58.746Z,98310.41
2022-08-28T02:55:25.832Z,98316.97
2022-08-28T02:57:53.002Z,98317.38
2022-08-28T03:00:23.604Z,98320.53
2022-08-28T03:02:51.248Z,98315.72
2022-08-28T03:05:21.125Z,98327.59
2022-08-28T03:07:49.415Z,98319.41
2022-08-28T03:10:16.431Z,98323.41
2022-08-28T03:12:43.585Z,98323.72
2022-08-28T03:15:11.406Z,98322.28
2022-08-28T03:17:39.146Z,98318.19
2022-08-28T03:20:09.532Z,98324.72
2022-08-28T03:22:55.535Z,98321.59
2022-08-28T03:25:23.291Z,98328.03
2022-08-28T03:27:50.875Z,98332.00
2022-08-28T03:30:18.970Z,98331.53
2022-08-28T03:32:45.934Z,98329.34
2022-08-28T03:35:13.316Z,98325.28
2022-08-28T03:37:40.409Z,98324.66
2022-08-28T03:40:08.791Z,98330.34
2022-08-28T03:42:36.076Z,98327.22
2022-08-28T03:45:05.504Z,98323.94
2022-08-28T03:47:32.339Z,98328.06
2022-08-28T03:50:00.319Z,98331.81
2022-08-28T03:52:27.258Z,98333.28
2022-08-28T03:54:54.361Z,98334.38
2022-08-28T03:57:22.600Z,98332.06
2022-08-28T03:59:51.574Z,98336.41
2022-08-28T04:02:20.661Z,98340.13
2022-08-28T04:04:50.707Z,98341.69
2022-08-28T04:07:18.966Z,98350.66
2022-08-28T04:09:46.970Z,98348.44
2022-08-28T04:12:15.261Z,98350.63
2022-08-28T04:14:42.295Z,98352.75
2022-08-28T04:17:10.009Z,98345.00
2022-08-28T04:19:38.078Z,98338.78
2022-08-28T04:22:04.940Z,98352.50
2022-08-28T04:24:31.786Z,98352.91
2022-08-28T04:26:58.979Z,98356.97
2022-08-28T04:29:25.918Z,98360.94
2022-08-28T04:31:53.118Z,98365.50
2022-08-28T04:34:20.223Z,98363.78
2022-08-28T04:36:50.121Z,98364.97
2022-08-28T04:39:17.224Z,98364.38
2022-08-28T04:41:44.310Z,98362.59
2022-08-28T04:44:11.203Z,98360.25
2022-08-28T04:46:38.624Z,98364.84
2022-08-28T04:49:06.029Z,98351.69
2022-08-28T04:51:33.432Z,98342.72
2022-08-28T04:54:02.633Z,98334.34
2022-08-28T04:56:29.822Z,98335.13
2022-08-28T04:58:56.691Z,98344.00
2022-08-28T05:01:24.945Z,98340.22
2022-08-28T05:03:57.906Z,98340.13
2022-08-28T05:06:29.289Z,98341.56
2022-08-28T05:08:59.164Z,98350.41
2022-08-28T05:11:33.762Z,98340.59
2022-08-28T05:14:15.914Z,98341.56
2022-08-28T05:16:53.046Z,98345.09
2022-08-28T05:19:21.239Z,98342.03
2022-08-28T05:21:49.422Z,98349.50
2022-08-28T05:24:16.283Z,98350.41
2022-08-28T05:26:43.330Z,98347.66
2022-08-28T05:29:11.240Z,98354.63
2022-08-28T05:31:40.376Z,98367.22
2022-08-28T05:34:07.487Z,98364.63
2022-08-28T05:36:36.755Z,98365.38
2022-08-28T05:39:07.179Z,98374.88
2022-08-28T05:41:34.764Z,98380.44
2022-08-28T05:44:04.866Z,98376.56
2022-08-28T05:46:32.379Z,98380.66
2022-08-28T05:49:00.573Z,98384.06
2022-08-28T05:51:28.576Z,98382.03
2022-08-28T05:53:57.768Z,98389.44
2022-08-28T05:56:31.047Z,98382.44
2022-08-28T05:59:00.193Z,98378.34
2022-08-28T06:01:33.876Z,98381.81
2022-08-28T06:04:03.472Z,98379.31
2022-08-28T06:06:34.489Z,98377.78
2022-08-28T06:09:08.758Z,98381.00
2022-08-28T06:11:36.025Z,98380.94
2022-08-28T06:14:04.567Z,98384.34
2022-08-28T06:16:32.578Z,98383.69
2022-08-28T06:19:00.770Z,98386.53
2022-08-28T06:21:29.421Z,98395.94
2022-08-28T06:23:56.475Z,98403.19
2022-08-28T06:26:23.991Z,98408.53
2022-08-28T06:28:53.169Z,98415.94
2022-08-28T06:31:24.548Z,98419.47
2022-08-28T06:33:57.837Z,98419.34
2022-08-28T06:36:27.612Z,98415.41
2022-08-28T06:38:58.235Z,98409.25
2022-08-28T06:41:26.590Z,98412.91
2022-08-28T06:43:54.134Z,98414.34
2022-08-28T06:46:22.049Z,98423.22
2022-08-28T06:48:49.014Z,98426.13
2022-08-28T06:51:15.850Z,98418.88
2022-08-28T06:53:44.650Z,98417.16
2022-08-28T06:56:25.709Z,98419.47
2022-08-28T06:58:56.826Z,98414.53
2022-08-28T07:01:33.022Z,98416.00
2022-08-28T07:04:09.054Z,98418.78
2022-08-28T07:06:38.999Z,98425.31
2022-08-28T07:09:08.540Z,98427.22
2022-08-28T07:11:36.777Z,98419.22
2022-08-28T07:14:04.954Z,98427.91
2022-08-28T07:16:35.539Z,98425.22
2022-08-28T07:19:05.013Z,98423.38
2022-08-28T07:21:36.930Z,98430.06
2022-08-28T07:24:07.102Z,98424.69
2022-08-28T07:26:34.972Z,98427.00
2022-08-28T07:29:09.894Z,98423.69
2022-08-28T07:31:44.058Z,98425.72
2022-08-28T07:34:12.504Z,98420.88
2022-08-28T07:36:39.826Z,98420.03
2022-08-28T07:39:08.022Z,98415.47
2022-08-28T07:41:39.058Z,98414.19
2022-08-28T07:44:26.420Z,98411.34
2022-08-28T07:46:55.634Z,98412.81
2022-08-28T07:49:23.393Z,98412.22
2022-08-28T07:51:50.239Z,98417.66
2022-08-28T07:54:22.614Z,98416.72
2022-08-28T07:56:50.768Z,98410.50
2022-08-28T07:59:19.431Z,98407.00
2022-08-28T08:01:47.842Z,98409.31
2022-08-28T08:04:16.373Z,98410.50
2022-08-28T08:06:44.289Z,98408.81
2022-08-28T08:09:14.692Z,98405.97
2022-08-28T08:11:42.760Z,98412.22
2022-08-28T08:14:10.107Z,98417.19
2022-08-28T08:16:39.755Z,98418.91
2022-08-28T08:19:10.123Z,98408.56
2022-08-28T08:21:37.533Z,98411.72
2022-08-28T08:24:05.272Z,98421.81
2022-08-28T08:26:33.695Z,98417.59
2022-08-28T08:29:01.093Z,98413.97
2022-08-28T08:31:32.728Z,98414.91
2022-08-28T08:34:03.620Z,98417.22
2022-08-28T08:36:32.792Z,98423.59
2022-08-28T08:39:00.736Z,98433.31
2022-08-28T08:41:48.427Z,98426.81
2022-08-28T08:44:40.895Z,98433.09
2022-08-28T08:47:19.497Z,98441.75
2022-08-28T08:49:52.455Z,98431.31
2022-08-28T08:52:44.062Z,98425.03
2022-08-28T08:55:25.954Z,98423.84
2022-08-28T08:58:16.625Z,98423.94
2022-08-28T09:00:52.784Z,98422.00
2022-08-28T09:03:25.176Z,98421.94
2022-08-28T09:05:56.955Z,98420.28
2022-08-28T09:08:30.835Z,98415.00
2022-08-28T09:11:07.150Z,98419.91
2022-08-28T09:13:37.013Z,98426.00
2022-08-28T09:16:13.030Z,98429.72
2022-08-28T09:18:40.554Z,98431.75
2022-08-28T09:21:07.370Z,98432.94
2022-08-28T09:23:34.326Z,98426.56
2022-08-28T09:26:09.349Z,98432.66
2022-08-28T09:28:40.867Z,98429.88
2022-08-28T09:31:20.074Z,98431.09
2022-08-28T09:33:51.352Z,98436.50
2022-08-28T09:36:34.459Z,98447.00
2022-08-28T09:39:32.073Z,98446.31
2022-08-28T09:42:32.768Z,98441.19
2022-08-28T09:44:59.890Z,98441.09
2022-08-28T09:47:46.271Z,98442.94
2022-08-28T09:50:21.565Z,98445.03
2022-08-28T09:52:49.689Z,98441.31
2022-08-28T09:55:33.567Z,98438.63
2022-08-28T09:58:01.330Z,98444.34
2022-08-28T10:00:34.201Z,98443.22
2022-08-28T10:03:14.598Z,98436.81
2022-08-28T10:05:58.343Z,98438.41
2022-08-28T10:08:57.667Z,98429.88
2022-08-28T10:11:34.225Z,98432.78
2022-08-28T10:14:15.125Z,98428.47
2022-08-28T10:17:25.230Z,98430.47
2022-08-28T10:20:14.070Z,98436.44
2022-08-28T10:23:01.295Z,98435.56
2022-08-28T10:25:44.184Z,98426.28
2022-08-28T10:28:24.092Z,98429.09
2022-08-28T10:30:56.128Z,98434.19
2022-08-28T10:33:45.745Z,98427.13
2022-08-28T10:36:33.973Z,98425.91
2022-08-28T10:39:12.296Z,98428.78
2022-08-28T10:41:55.832Z,98429.28
2022-08-28T10:44:41.405Z,98426.63
2022-08-28T10:47:10.243Z,98432.25
2022-08-28T10:49:49.088Z,98435.19
2022-08-28T10:52:32.427Z,98422.63
2022-08-28T10:55:02.203Z,98428.22
2022-08-28T10:57:36.117Z,98427.69
2022-08-28T11:00:14.637Z,98426.19
2022-08-28T11:02:45.988Z,98424.13
2022-08-28T11:05:13.512Z,98422.78
2022-08-28T11:07:54.472Z,98428.59
2022-08-28T11:10:36.493Z,98424.59
2022-08-28T11:13:06.368Z,98417.75
2022-08-28T11:15:37.109Z,98425.22
2022-08-28T11:18:16.447Z,98420.16
2022-08-28T11:20:56.272Z,98420.88
2022-08-28T11:23:35.403Z,98424.31
2022-08-28T11:26:06.600Z,98416.53
2022-08-28T11:28:36.462Z,98416.63
2022-08-28T11:31:06.275Z,98415.28
2022-08-28T11:33:52.985Z,98415.25
2022-08-28T11:36:19.939Z,98408.38
2022-08-28T11:38:52.918Z,98411.09
2022-08-28T11:41:29.493Z,98402.13
2022-08-28T11:44:12.608Z,98408.59
2022-08-28T11:46:43.468Z,98417.13
2022-08-28T11:49:33.646Z,98398.47
2022-08-28T11:52:18.104Z,98412.44
2022-08-28T11:55:07.020Z,98399.31
2022-08-28T11:57:54.274Z,98393.88
2022-08-28T12:00:33.034Z,98388.69
2022-08-28T12:03:11.263Z,98390.84
2022-08-28T12:05:40.171Z,98394.78
2022-08-28T12:08:09.011Z,98387.25
2022-08-28T12:10:35.806Z,98390.03
2022-08-28T12:13:05.356Z,98392.84
2022-08-28T12:15:32.405Z,98384.47
2022-08-28T12:18:05.711Z,98385.88
2022-08-28T12:20:35.704Z,98384.09
2022-08-28T12:23:24.728Z,98388.00
2022-08-28T12:26:01.767Z,98382.09
2022-08-28T12:28:51.940Z,98380.25
2022-08-28T12:32:05.235Z,98380.09
2022-08-28T12:34:58.181Z,98370.66
2022-08-28T12:37:52.278Z,98369.84
2022-08-28T12:40:38.332Z,98363.00
2022-08-28T12:43:08.126Z,98360.63
2022-08-28T12:45:42.796Z,98366.19
2022-08-28T12:48:24.438Z,98364.06
2022-08-28T12:51:08.579Z,98359.28
2022-08-28T12:53:47.550Z,98348.97
2022-08-28T12:56:17.890Z,98355.25
2022-08-28T12:58:46.045Z,98352.13
2022-08-28T13:01:27.490Z,98354.34
2022-08-28T13:04:02.005Z,98350.53
2022-08-28T13:06:39.147Z,98347.84
2022-08-28T13:09:14.238Z,98334.41
2022-08-28T13:11:47.320Z,98348.72
2022-08-28T13:14:34.332Z,98339.84
2022-08-28T13:17:01.300Z,98342.50
2022-08-28T13:19:30.946Z,98339.19
2022-08-28T13:22:28.530Z,98332.75
2022-08-28T13:25:00.430Z,98334.66
2022-08-28T13:27:27.680Z,98333.16
2022-08-28T13:30:24.692Z,98326.03
2022-08-28T13:32:58.155Z,98329.16
2022-08-28T13:35:25.125Z,98322.88
2022-08-28T13:37:54.531Z,98334.38
2022-08-28T13:43:16.360Z,98335.63
2022-08-28T13:45:45.951Z,98330.59
2022-08-28T13:48:21.129Z,98333.09
2022-08-28T13:50:52.799Z,98340.84
2022-08-28T13:53:21.454Z,98338.56
2022-08-28T13:55:50.762Z,98338.75
2022-08-28T13:58:17.945Z,98332.50
2022-08-28T14:00:47.435Z,98340.84
2022-08-28T14:03:33.468Z,98334.78
2022-08-28T14:06:00.835Z,98322.06
2022-08-28T14:08:27.626Z,98329.81
2022-08-28T14:10:54.520Z,98326.47
2022-08-28T14:13:23.354Z,98325.22
2022-08-28T14:15:50.293Z,98326.91
2022-08-28T14:18:18.207Z,98321.47
2022-08-28T14:20:45.360Z,98326.28
2022-08-28T14:23:12.559Z,98319.38
2022-08-28T14:25:43.960Z,98312.88
2022-08-28T14:28:12.089Z,98313.28
2022-08-28T14:30:44.017Z,98315.41
2022-08-28T14:33:11.288Z,98312.47
2022-08-28T14:35:40.772Z,98311.00
2022-08-28T14:38:10.598Z,98315.59
2022-08-28T14:40:43.197Z,98314.31
2022-08-28T14:43:12.041Z,98316.41
2022-08-28T14:45:46.860Z,98318.28
2022-08-28T14:48:15.004Z,98307.63
2022-08-28T14:50:44.064Z,98308.91
2022-08-28T14:53:11.151Z,98307.25
2022-08-28T14:55:56.163Z,98308.72
2022-08-28T14:58:23.000Z,98314.56
2022-08-28T15:00:50.883Z,98307.88
2022-08-28T15:03:19.723Z,98313.94
2022-08-28T15:05:46.565Z,98301.53
2022-08-28T15:08:17.226Z,98301.56
2022-08-28T15:10:45.003Z,98295.41
2022-08-28T15:13:12.803Z,98308.16
2022-08-28T15:15:41.347Z,98308.53
2022-08-28T15:18:10.324Z,98302.88
2022-08-28T15:20:42.940Z,98304.09
2022-08-28T15:23:11.517Z,98310.78
2022-08-28T15:25:38.483Z,98315.31
2022-08-28T15:28:05.847Z,98310.50
2022-08-28T15:30:32.813Z,98311.97
2022-08-28T15:32:59.921Z,98316.13
2022-08-28T15:35:26.984Z,98317.53
2022-08-28T15:37:54.264Z,98308.72
2022-08-28T15:40:40.178Z,98317.63
2022-08-28T15:43:07.416Z,98316.78
2022-08-28T15:45:39.261Z,98317.97
2022-08-28T15:48:06.911Z,98324.41
2022-08-28T15:50:34.230Z,98315.75
2022-08-28T15:53:01.847Z,98322.81
2022-08-28T15:55:28.952Z,98326.09
2022-08-28T15:57:56.295Z,98316.69
2022-08-28T16:00:23.500Z,98321.19
2022-08-28T16:02:50.319Z,98323.41
2022-08-28T16:05:17.487Z,98324.59
2022-08-28T16:07:44.945Z,98317.41
2022-08-28T16:10:13.807Z,98322.41
2022-08-28T16:12:41.116Z,98311.13
2022-08-28T16:15:09.448Z,98318.41
2022-08-28T16:17:36.327Z,98314.00
2022-08-28T16:20:06.700Z,98317.75
2022-08-28T16:22:39.539Z,98319.56
2022-08-28T16:25:07.598Z,98313.69
2022-08-28T16:27:34.436Z,98323.69
2022-08-28T16:30:03.391Z,98318.66
2022-08-28T16:32:30.540Z,98311.47
2022-08-28T16:34:58.355Z,98313.09
2022-08-28T16:37:26.128Z,98319.91
2022-08-28T16:40:06.674Z,98314.22
2022-08-28T16:42:33.573Z,98317.06
2022-08-28T16:45:00.687Z,98316.41
2022-08-28T16:47:31.742Z,98315.09
2022-08-28T16:50:05.927Z,98318.56
2022-08-28T16:52:33.118Z,98318.31
2022-08-28T16:55:00.083Z,98322.16
2022-08-28T16:57:27.587Z,98331.47
2022-08-28T16:59:54.674Z,98324.41
2022-08-28T17:02:26.694Z,98339.59
2022-08-28T17:05:00.490Z,98333.72
2022-08-28T17:07:28.476Z,98337.59
2022-08-28T17:09:55.661Z,98339.28
2022-08-28T17:12:22.615Z,98340.53
2022-08-28T17:14:49.724Z,98344.38
2022-08-28T17:17:16.591Z,98345.16
2022-08-28T17:19:43.421Z,98353.63
2022-08-28T17:22:29.354Z,98350.84
2022-08-28T17:24:56.259Z,98351.63
2022-08-28T17:27:23.357Z,98355.59
2022-08-28T17:29:50.688Z,98360.88
2022-08-28T17:32:17.669Z,98360.22
2022-08-28T17:34:45.246Z,98362.97
2022-08-28T17:37:12.137Z,98364.34
2022-08-28T17:39:39.128Z,98359.09
2022-08-28T17:42:06.299Z,98365.50
2022-08-28T17:44:35.329Z,98358.91
2022-08-28T17:47:02.415Z,98367.13
2022-08-28T17:49:29.574Z,98370.66
2022-08-28T17:51:56.485Z,98373.13
2022-08-28T17:54:24.459Z,98374.25
2022-08-28T17:56:54.474Z,98381.59
2022-08-28T17:59:22.803Z,98379.56
2022-08-28T18:01:50.099Z,98381.56
2022-08-28T18:04:23.918Z,98388.56
2022-08-28T18:06:54.478Z,98388.47
2022-08-28T18:09:23.534Z,98389.91
2022-08-28T18:11:51.122Z,98402.09
2022-08-28T18:14:18.100Z,98396.41
2022-08-28T18:16:45.144Z,98395.97
2022-08-28T18:19:12.082Z,98404.41
2022-08-28T18:21:40.425Z,98405.53
2022-08-28T18:24:08.563Z,98414.66
2022-08-28T18:26:35.395Z,98411.72
2022-08-28T18:29:02.216Z,98416.31
2022-08-28T18:33:58.350Z,98411.91
2022-08-28T18:36:43.530Z,98407.44
2022-08-28T18:39:10.886Z,98411.72
2022-08-28T18:41:43.492Z,98410.34
2022-08-28T18:44:13.531Z,98421.78
2022-08-28T18:46:40.643Z,98420.84
2022-08-28T18:49:07.556Z,98425.81
2022-08-28T18:51:34.615Z,98421.91
2022-08-28T18:54:02.955Z,98429.38
2022-08-28T18:56:32.165Z,98429.97
2022-08-28T18:59:00.688Z,98429.00
2022-08-28T19:01:28.464Z,98436.59
2022-08-28T19:03:55.643Z,98436.03
2022-08-28T19:06:23.412Z,98437.47
2022-08-28T19:08:50.290Z,98445.38
2022-08-28T19:11:17.817Z,98447.09
2022-08-28T19:13:45.036Z,98448.63
2022-08-28T19:16:17.316Z,98453.16
2022-08-28T19:18:45.815Z,98450.91
2022-08-28T19:21:19.679Z,98454.03
2022-08-28T19:23:55.986Z,98447.25
2022-08-28T19:26:26.937Z,98448.00
2022-08-28T19:28:55.173Z,98444.91
2022-08-28T19:31:23.014Z,98447.84
2022-08-28T19:33:50.768Z,98451.13
2022-08-28T19:36:18.664Z,98450.53
2022-08-28T19:38:45.821Z,98452.09
2022-08-28T19:41:14.544Z,98446.88
2022-08-28T19:43:43.414Z,98458.28
2022-08-28T19:46:18.600Z,98457.84
2022-08-28T19:48:51.797Z,98465.75
2022-08-28T19:51:22.661Z,98471.81
2022-08-28T19:53:57.280Z,98472.34
2022-08-28T19:56:29.953Z,98470.69
2022-08-28T19:58:59.332Z,98466.72
2022-08-28T20:01:29.964Z,98464.28
2022-08-28T20:03:58.182Z,98472.72
2022-08-28T20:06:25.662Z,98468.06
2022-08-28T20:08:52.507Z,98464.53
2022-08-28T20:11:30.298Z,98477.63
2022-08-28T20:14:04.048Z,98471.97
2022-08-28T20:16:35.326Z,98475.88
2022-08-28T20:19:04.001Z,98473.44
2022-08-28T20:21:37.078Z,98473.59
2022-08-28T20:24:12.077Z,98474.56
2022-08-28T20:26:39.575Z,98473.28
2022-08-28T20:29:08.598Z,98473.53
2022-08-28T20:31:40.496Z,98473.94
2022-08-28T20:34:09.239Z,98469.84
2022-08-28T20:36:36.232Z,98475.59
2022-08-28T20:39:07.182Z,98481.22
2022-08-28T20:41:34.859Z,98475.88
2022-08-28T20:44:05.040Z,98477.41
2022-08-28T20:46:37.045Z,98470.63
2022-08-28T20:49:08.111Z,98471.84
2022-08-28T20:51:53.349Z,98472.00
2022-08-28T20:54:22.197Z,98467.16
2022-08-28T20:56:51.026Z,98473.75
2022-08-28T20:59:19.504Z,98471.34
2022-08-28T21:01:46.733Z,98470.75
2022-08-28T21:04:13.603Z,98471.97
2022-08-28T21:06:40.463Z,98470.53
2022-08-28T21:09:07.474Z,98467.72
2022-08-28T21:11:34.333Z,98474.28
2022-08-28T21:14:01.133Z,98472.44
2022-08-28T21:16:28.278Z,98479.50
2022-08-28T21:19:14.636Z,98475.13
2022-08-28T21:21:42.857Z,98480.56
2022-08-28T21:24:12.219Z,98477.91
2022-08-28T21:26:43.279Z,98482.34
2022-08-28T21:29:11.395Z,98487.53
2022-08-28T21:31:40.919Z,98483.31
2022-08-28T21:34:09.520Z,98481.34
2022-08-28T21:36:38.221Z,98482.34
2022-08-28T21:39:05.949Z,98488.91
2022-08-28T21:41:33.096Z,98497.19
2022-08-28T21:44:00.333Z,98488.84
2022-08-28T21:46:27.874Z,98504.97
2022-08-28T21:48:56.305Z,98505.34
2022-08-28T21:51:24.693Z,98509.13
2022-08-28T21:53:52.966Z,98511.81
2022-08-28T21:56:24.085Z,98515.81
2022-08-28T21:58:52.569Z,98515.09
2022-08-28T22:01:21.168Z,98511.56
2022-08-28T22:03:48.089Z,98514.50
2022-08-28T22:06:18.517Z,98515.47
2022-08-28T22:08:46.744Z,98513.91
2022-08-28T22:11:14.247Z,98518.41
2022-08-28T22:13:44.223Z,98522.03
2022-08-28T22:16:11.381Z,98522.16
2022-08-28T22:18:38.318Z,98525.06
2022-08-28T22:21:24.902Z,98526.31
2022-08-28T22:23:51.728Z,98522.91
2022-08-28T22:26:20.726Z,98527.28
2022-08-28T22:28:47.880Z,98520.38
2022-08-28T22:31:14.855Z,98525.59
2022-08-28T22:33:43.093Z,98524.34
2022-08-28T22:36:10.938Z,98515.72
2022-08-28T22:38:39.681Z,98519.84
2022-08-28T22:41:07.667Z,98523.81
2022-08-28T22:43:35.335Z,98525.13
2022-08-28T22:46:03.916Z,98529.94
2022-08-28T22:48:31.506Z,98522.53
2022-08-28T22:51:18.351Z,98515.91
2022-08-28T22:53:46.818Z,98516.50
2022-08-28T22:56:14.600Z,98512.88
2022-08-28T22:58:41.699Z,98521.72
2022-08-28T23:01:13.959Z,98523.53
2022-08-28T23:03:41.268Z,98529.81
2022-08-28T23:06:08.385Z,98535.44
2022-08-28T23:08:35.492Z,98545.00
2022-08-28T23:11:03.180Z,98559.91
2022-08-28T23:13:30.898Z,98589.88
2022-08-28T23:15:58.399Z,98599.56
2022-08-28T23:18:25.503Z,98603.56
2022-08-28T23:20:55.340Z,98596.34
2022-08-28T23:23:23.844Z,98599.56
2022-08-28T23:25:50.766Z,98594.03
2022-08-28T23:28:18.445Z,98595.44
2022-08-28T23:30:48.475Z,98601.72
2022-08-28T23:33:23.737Z,98601.66
2022-08-28T23:35:52.120Z,98594.81
2022-08-28T23:38:19.526Z,98588.06
2022-08-28T23:40:48.267Z,98585.00
2022-08-28T23:43:17.963Z,98588.97
2022-08-28T23:45:45.106Z,98586.50
2022-08-28T23:48:12.349Z,98585.53
2022-08-28T23:50:42.195Z,98582.34
2022-08-28T23:53:09.854Z,98581.09
2022-08-28T23:55:37.422Z,98578.59
2022-08-28T23:58:05.379Z,98577.47
